x

Saginaw Bay Light #1, Mi (sblm4) Weather Station

3:00am - Tue 21st Apr 2015 All times are CDT. -5 hours from GMT.

  • Wind
    24mph, 30mph gusts
  • Air Temp 42°f
  • Sea Pressure 998.6mb
  • Saginaw Bay Light #1, Mi
  • Saginaw Bay Light #1, Mi

More Historic Weather Station data

Upgrade to MSW Pro to gain access to the past 30 days of data for over 8000 Wavebouys and Weather Stations around the globe.

Join Pro

Comparision Forecast

View Surf forecast
   
Tue 04/21 3:00am 24 30 mph 998.6mb 42f
2:50am 23 29 mph 998.6mb 42f
2:40am 23 30 mph 998.6mb 42f
2:30am 26 31 mph 998.6mb 42f
2:20am 23 31 mph 998.6mb 42f
2:10am 24 31 mph 998.3mb 42f
2:00am 25 30 mph 998.3mb 42f
1:50am 23 29 mph 998.6mb 43f
1:40am 26 33 mph 998.3mb 43f
1:30am 26 30 mph 998.3mb 42f
1:20am 24 26 mph 998.6mb 42f
1:10am 28 31 mph 998.3mb 42f
1:00am 24 28 mph 998.3mb 42f
12:50am 26 30 mph 998.3mb 42f
12:40am 24 29 mph 998.3mb 42f
12:30am 23 37 mph 998.3mb 41f
12:20am 30 33 mph 998.3mb 42f
12:10am 25 30 mph 998.3mb 42f
12:00am 26 33 mph 998.3mb 42f
Mon 04/20 11:50pm 24 29 mph 998.3mb 43f
11:40pm 23 29 mph 998.3mb 43f
11:30pm 24 31 mph 998.3mb 43f
11:20pm 26 30 mph 998.3mb 42f
11:10pm 23 26 mph 998.3mb 44f
11:00pm 25 30 mph 998.3mb 44f
10:50pm 28 31 mph 998mb 44f
10:40pm 29 31 mph 998mb 44f
10:30pm 26 31 mph 997.6mb 44f
10:20pm 30 32 mph 997.6mb 44f
10:10pm 25 33 mph 997.6mb 44f
10:00pm 26 32 mph 997.6mb 44f
9:50pm 24 30 mph 998mb 44f
9:40pm 24 31 mph 997.6mb 44f
9:30pm 23 33 mph 997.6mb 44f
9:20pm 28 32 mph 997.6mb 44f
9:10pm 24 32 mph 997.6mb 44f
9:00pm 28 32 mph 997.3mb 44f
8:50pm 26 34 mph 997.3mb 45f
8:40pm 31 38 mph 997mb 45f
8:30pm 32 38 mph 996.6mb 45f
8:20pm 28 34 mph 996.6mb 45f
8:10pm 31 37 mph 996.3mb 45f
8:00pm 33 38 mph 995.9mb 45f
7:50pm 32 40 mph 995.9mb 45f
7:40pm 31 39 mph 995.9mb 45f
7:30pm 30 40 mph 995.3mb 45f
7:20pm 31 37 mph 995.3mb 45f
7:10pm 31 37 mph 994.9mb 45f
7:00pm 34 41 mph 994.6mb 46f
6:50pm 34 41 mph 994.6mb 45f
6:40pm 37 41 mph 994.6mb 46f
6:30pm 36 41 mph 994.2mb 46f
6:20pm 36 41 mph 994.2mb 46f
6:10pm 37 44 mph 993.9mb 46f
6:00pm 32 37 mph 993.6mb 47f
5:50pm 33 39 mph 993.6mb 48f
5:40pm 31 40 mph 993.2mb 48f
5:30pm 34 40 mph 992.9mb 48f
5:20pm 36 43 mph 992.9mb 49f
5:10pm 37 41 mph 992.6mb 49f
5:00pm 36 45 mph 992.6mb 49f
4:50pm 33 39 mph 992.2mb 49f
4:40pm 30 34 mph 992.2mb 49f
4:30pm 23 30 mph 991.9mb 49f
4:20pm 28 37 mph 991.5mb 49f
4:10pm 28 33 mph 991.5mb 50f
4:00pm 32 40 mph 991.2mb 50f
3:50pm 33 40 mph 990.9mb 51f
3:40pm 30 37 mph 990.9mb 51f
3:30pm 33 40 mph 990.5mb 51f
3:20pm 26 32 mph 990.5mb 50f
3:10pm 26 34 mph 990.2mb 51f
3:00pm 25 29 mph 989.8mb 52f
2:50pm 22 28 mph 989.8mb 52f
2:40pm 18 24 mph 989.8mb 52f
2:30pm 22 26 mph 989.5mb 52f
2:20pm 23 28 mph 989.5mb 52f
2:10pm 25 28 mph 989.5mb 52f
2:00pm 25 28 mph 989.2mb 53f
1:50pm 20 24 mph 989.2mb 52f
1:40pm 21 30 mph 988.8mb 53f
1:30pm 26 30 mph 988.8mb 53f
1:20pm 25 30 mph 988.8mb 53f
1:10pm 22 26 mph 988.8mb 53f
1:00pm 20 22 mph 988.5mb 52f
12:50pm 18 23 mph 988.5mb 52f
12:40pm 14 20 mph 988.5mb 51f
12:30pm 18 20 mph 988.8mb 51f
12:20pm 18 20 mph 988.8mb 51f
12:10pm 18 20 mph 988.5mb 51f
12:00pm 20 21 mph 988.5mb 52f
11:50am 21 23 mph 988.5mb 52f
11:40am 21 23 mph 988.5mb 52f
11:30am 20 22 mph 988.5mb 52f
11:20am 21 24 mph 988.5mb 52f
11:10am 24 26 mph 988.5mb 53f
11:00am 24 28 mph 988.5mb 52f
10:50am 26 31 mph 988.5mb 53f
10:40am 26 33 mph 988.5mb 53f
10:30am 29 34 mph 988.5mb 53f
10:20am 31 36 mph 988.1mb 53f
10:10am 29 32 mph 988.1mb 53f
10:00am 31 37 mph 988.1mb 53f
9:50am 30 34 mph 988.1mb 53f
9:40am 26 32 mph 988.1mb 53f
9:30am 26 34 mph 988.1mb 53f
9:20am 28 32 mph 987.8mb 53f
9:10am 24 28 mph 987.8mb 52f
9:00am 26 32 mph 987.8mb 52f
8:50am 30 37 mph 987.8mb 52f
8:40am 31 41 mph 987.5mb 52f
8:30am 30 41 mph 987.5mb 53f
8:20am 38 44 mph 987.1mb 53f
8:10am 31 34 mph 987.5mb 53f
8:00am 31 37 mph 987.5mb 54f
7:50am 31 40 mph 987.5mb 53f
7:40am 33 43 mph 987.5mb 54f
7:30am 33 39 mph 987.1mb 54f
7:20am 34 41 mph 987.1mb 55f
7:10am 28 31 mph 987.1mb 53f
7:00am 26 29 mph 986.8mb 53f
6:50am 25 30 mph 986.8mb 53f
6:40am 25 28 mph 986.5mb 53f
6:30am 25 28 mph 986.5mb 53f
6:20am 24 28 mph 986.5mb 52f
6:10am 23 25 mph 986.5mb 52f
6:00am 22 25 mph 986.5mb 52f
5:50am 23 26 mph 986.5mb 52f
5:40am 24 26 mph 986.5mb 52f
5:30am 25 28 mph 986.5mb 52f
5:20am 24 26 mph 986.8mb 52f
5:10am 23 28 mph 986.8mb 52f
5:00am 24 29 mph 987.1mb 52f
4:50am 26 29 mph 987.1mb 52f
4:40am 25 29 mph 987.5mb 52f
4:30am 25 29 mph 987.5mb 51f
4:20am 24 26 mph 987.8mb 51f
4:10am 23 26 mph 988.1mb 51f
4:00am 23 26 mph 988.5mb 51f
3:50am 24 26 mph 988.8mb 50f
3:40am 23 28 mph 988.8mb 50f
3:30am 25 30 mph 989.2mb 50f
3:20am 25 29 mph 989.5mb 49f
3:10am 25 29 mph 989.5mb 49f
3:00am 26 30 mph 989.8mb 49f
2:50am 28 31 mph 990.2mb 49f
2:40am 28 32 mph 990.5mb 49f
2:30am 28 33 mph 990.9mb 48f
2:20am 29 33 mph 991.2mb 48f
2:10am 30 36 mph 991.2mb 48f
2:00am 30 37 mph 991.9mb 48f
1:50am 30 40 mph 991.9mb 48f
1:40am 31 39 mph 992.2mb 48f
1:30am 30 39 mph 992.6mb 48f
1:20am 29 38 mph 993.2mb 48f
1:10am 31 38 mph 993.6mb 49f
1:00am 29 36 mph 993.9mb 49f
12:50am 30 33 mph 994.6mb 49f
12:40am 29 37 mph 994.9mb 48f
12:30am 28 36 mph 995.3mb 49f
12:20am 29 37 mph 995.6mb 48f
12:10am 26 32 mph 995.9mb 48f
12:00am 26 31 mph 996.3mb 48f
Sun 04/19 11:50pm 28 32 mph 996.6mb 48f
11:40pm 26 31 mph 997mb 48f
11:30pm 24 30 mph 997.6mb 47f
11:20pm 25 29 mph 997.6mb 47f
11:10pm 24 28 mph 998.3mb 47f
11:00pm 25 28 mph 998.6mb 47f
10:50pm 24 28 mph 999.3mb 47f
10:40pm 23 28 mph 999.7mb 47f
10:30pm 22 28 mph 1000mb 47f
10:20pm 23 29 mph 1000.7mb 47f
10:10pm 23 29 mph 1000.3mb 47f
10:00pm 23 30 mph 1000.7mb 47f
9:50pm 23 28 mph 1001.4mb 47f
9:40pm 22 25 mph 1001.7mb 47f
9:30pm 21 24 mph 1002mb 47f
9:20pm 21 24 mph 1002.4mb 47f
9:10pm 18 21 mph 1002.7mb 47f
9:00pm 16 20 mph 1003mb 47f
8:50pm 17 22 mph 1003.4mb 48f
8:40pm 20 22 mph 1003.4mb 49f
8:30pm 20 23 mph 1003.7mb 50f
8:20pm 20 22 mph 1004.1mb 50f
8:10pm 15 21 mph 1004.1mb 51f
8:00pm 18 25 mph 1003.7mb 51f
7:50pm 20 23 mph 1004.1mb 51f
7:40pm 20 23 mph 1004.4mb 51f
7:30pm 14 18 mph 1004.4mb 50f
7:20pm 18 20 mph 1004.4mb 51f
7:10pm 16 20 mph 1004.7mb 51f
7:00pm 17 20 mph 1004.7mb 51f
6:50pm 17 20 mph 1005.1mb 51f
6:40pm 18 24 mph 1005.1mb 51f
6:30pm 20 22 mph 1005.4mb 51f
6:20pm 21 23 mph 1005.4mb 52f
6:10pm 20 21 mph 1005.8mb 51f
6:00pm 16 22 mph 1005.8mb 49f
5:50pm 20 23 mph 1006.1mb 45f
5:40pm 23 28 mph 1006.1mb 45f
5:30pm 22 28 mph 1006.4mb 44f
5:20pm 25 29 mph 1006.4mb 44f
5:10pm 25 29 mph 1006.8mb 43f
5:00pm 24 31 mph 1006.8mb 43f
4:50pm 26 30 mph 1007.1mb 43f
4:40pm 25 31 mph 1007.1mb 43f
4:30pm 23 32 mph 1007.8mb 43f
4:20pm 25 30 mph 1007.8mb 43f
4:10pm 24 31 mph 1008.1mb 43f
4:00pm 28 32 mph 1008.1mb 43f
3:50pm 28 31 mph 1008.5mb 43f
3:40pm 28 31 mph 1008.8mb 43f
3:30pm 26 29 mph 1009.1mb 43f
3:20pm 25 29 mph 1009.1mb 43f
3:10pm 26 30 mph 1009.5mb 43f
3:00pm 26 31 mph 1009.5mb 44f
2:50pm 26 30 mph 1009.8mb 43f
2:40pm 25 30 mph 1009.8mb 43f
2:30pm 25 29 mph 1010.2mb 43f
2:20pm 25 29 mph 1010.5mb 43f
2:10pm 26 30 mph 1010.5mb 43f
2:00pm 26 31 mph 1010.8mb 43f
1:50pm 25 28 mph 1011.2mb 43f
1:40pm 24 29 mph 1011.2mb 43f
1:30pm 25 29 mph 1011.5mb 43f
1:20pm 25 29 mph 1011.9mb 43f
1:10pm 24 29 mph 1012.2mb 43f
1:00pm 25 29 mph 1012.2mb 43f
12:50pm 23 25 mph 1012.5mb 43f
12:40pm 18 22 mph 1012.9mb 44f
12:30pm 20 22 mph 1013.2mb 49f
12:20pm 20 22 mph 1013.5mb 49f
12:10pm 17 21 mph 1013.5mb 48f
12:00pm 18 20 mph 1013.9mb 49f
11:50am 18 20 mph 1014.2mb 48f
11:40am 16 21 mph 1014.6mb 48f
11:30am 18 21 mph 1014.9mb 49f
11:20am 17 22 mph 1015.2mb 49f
11:10am 17 20 mph 1015.2mb 49f
11:00am 16 20 mph 1015.6mb 48f
10:50am 18 20 mph 1015.6mb 49f
10:40am 17 20 mph 1015.9mb 48f
10:30am 17 21 mph 1015.9mb 48f
10:20am 18 23 mph 1016.3mb 48f
10:10am 20 22 mph 1016.6mb 48f
10:00am 17 20 mph 1016.6mb 48f
9:50am 18 22 mph 1016.9mb 48f
9:40am 20 22 mph 1016.6mb 47f
9:30am 18 22 mph 1016.9mb 48f
9:20am 20 23 mph 1016.9mb 47f
9:10am 21 24 mph 1017.3mb 47f
9:00am 22 25 mph 1017.6mb 47f
8:50am 22 26 mph 1017.6mb 46f
8:40am 25 28 mph 1017.6mb 46f
8:30am 23 28 mph 1017.9mb 46f
8:20am 25 28 mph 1017.9mb 46f
8:10am 24 28 mph 1018.3mb 45f
8:00am 25 30 mph 1018.3mb 45f
7:50am 24 28 mph 1018.3mb 45f
7:40am 25 29 mph 1018.6mb 44f
7:30am 22 26 mph 1018.6mb 44f
7:20am 23 28 mph 1019mb 44f
7:10am 21 26 mph 1019mb 44f
7:00am 21 25 mph 1019mb 44f
6:50am 21 25 mph 1019.3mb 44f
6:40am 20 24 mph 1019.3mb 44f
6:30am 21 25 mph 1019.3mb 44f
6:20am 20 24 mph 1019.3mb 44f
6:10am 21 24 mph 1019mb 44f
6:00am 22 24 mph 1019mb 44f
5:50am 21 23 mph 1019mb 44f
5:40am 18 23 mph 1019mb 44f
5:30am 20 24 mph 1019mb 44f
5:20am 20 22 mph 1019mb 44f
5:10am 18 21 mph 1018.6mb 44f
5:00am 17 21 mph 1019mb 44f
4:50am 17 22 mph 1019mb 44f
4:40am 17 20 mph 1019.3mb 44f
4:30am 17 20 mph 1019.3mb 44f
4:20am 16 18 mph 1019.6mb 44f
4:10am 17 18 mph 1019.6mb 44f
4:00am 16 18 mph 1019.6mb 44f
3:50am 17 18 mph 1019.6mb 44f
3:40am 17 18 mph 1020mb 44f
3:30am 16 18 mph 1020mb 44f
3:20am 16 17 mph 1020.3mb 44f
3:10am 13 17 mph 1020.3mb 45f
3:00am 13 16 mph 1020.3mb 45f
2:50am 15 18 mph 1020.3mb 45f
2:40am 16 18 mph 1020.3mb 45f
2:30am 16 20 mph 1020.3mb 45f
2:20am 17 18 mph 1020mb 45f
2:10am 17 18 mph 1020.3mb 45f
2:00am 17 18 mph 1020.3mb 45f
1:50am 15 20 mph 1020.3mb 45f
1:40am 16 17 mph 1020.3mb 45f
1:30am 13 14 mph 1020.7mb 45f
1:20am 11 14 mph 1021mb 45f
1:10am 13 15 mph 1021mb 45f
1:00am 14 15 mph 1021.3mb 45f
12:50am 14 15 mph 1021.3mb 46f
12:40am 15 16 mph 1021.3mb 45f
12:30am 15 16 mph 1021.3mb 45f
12:20am 15 16 mph 1021.7mb 44f
12:10am 15 16 mph 1021.7mb 44f
12:00am 15 17 mph 1021.7mb 44f
Sat 04/18 11:50pm 15 17 mph 1021.3mb 44f
11:40pm 15 17 mph 1021.7mb 44f
11:30pm 16 17 mph 1021.7mb 44f
11:20pm 15 17 mph 1021.3mb 44f
11:10pm 15 17 mph 1021.3mb 44f
11:00pm 14 17 mph 1021.3mb 44f
10:50pm 15 18 mph 1021.3mb 44f
10:40pm 17 18 mph 1021.3mb 44f
10:30pm 15 17 mph 1021.3mb 44f
10:20pm 14 16 mph 1021.7mb 44f
10:10pm 15 17 mph 1021.7mb 44f
10:00pm 15 18 mph 1021.7mb 44f
9:50pm 16 18 mph 1021.7mb 44f
9:40pm 16 20 mph 1021.7mb 44f
9:30pm 17 18 mph 1021.7mb 44f
9:20pm 16 18 mph 1021.7mb 44f
9:10pm 16 18 mph 1021.7mb 44f
9:00pm 16 18 mph 1022mb 44f
8:50pm 17 20 mph 1022mb 45f
8:40pm 17 18 mph 1022mb 45f
8:30pm 17 20 mph 1022mb 45f
8:20pm 16 20 mph 1022mb 45f
8:10pm 17 18 mph 1022mb 45f
8:00pm 15 17 mph 1022mb 45f
7:50pm 15 18 mph 1022mb 45f
7:40pm 17 18 mph 1022mb 45f
7:30pm 16 20 mph 1021.7mb 45f
7:20pm 18 21 mph 1021.7mb 45f
7:10pm 17 18 mph 1021.7mb 45f
7:00pm 17 21 mph 1021.7mb 45f
6:50pm 18 22 mph 1021.3mb 45f
6:40pm 18 21 mph 1021.3mb 45f
6:30pm 18 22 mph 1021.7mb 45f
6:20pm 20 22 mph 1021.7mb 45f
6:10pm 18 21 mph 1021.7mb 45f
6:00pm 18 21 mph 1021.7mb 45f
5:50pm 18 20 mph 1021.7mb 45f
5:40pm 16 20 mph 1021.7mb 45f
5:30pm 16 20 mph 1021.7mb 45f
5:20pm 18 21 mph 1021.7mb 45f
5:10pm 17 21 mph 1021.7mb 45f
5:00pm 18 21 mph 1021.7mb 45f
4:50pm 17 18 mph 1021.7mb 45f
4:40pm 16 18 mph 1022mb 45f
4:30pm 17 18 mph 1022mb 46f
4:20pm 16 18 mph 1022mb 45f
4:10pm 17 18 mph 1022mb 45f
4:00pm 16 20 mph 1022mb 45f
3:50pm 17 20 mph 1022mb 45f
3:40pm 18 21 mph 1021.7mb 45f
3:30pm 17 20 mph 1021.7mb 45f
3:20pm 17 22 mph 1021.3mb 44f
3:10pm 18 22 mph 1021.3mb 44f
3:00pm 17 20 mph 1021.3mb 44f
2:50pm 18 21 mph 1021.7mb 44f
2:40pm 16 20 mph 1022mb 44f
2:30pm 16 18 mph 1022mb 44f
2:20pm 17 22 mph 1022mb 44f
2:10pm 20 22 mph 1022mb 44f
2:00pm 18 22 mph 1022mb 44f
1:50pm 20 24 mph 1021.7mb 44f
1:40pm 23 28 mph 1021.3mb 44f
1:30pm 24 30 mph 1021mb 44f
1:20pm 26 30 mph 1021mb 44f
1:10pm 25 29 mph 1021mb 44f
1:00pm 25 31 mph 1021mb 44f
12:50pm 26 30 mph 1020.7mb 44f
12:40pm 29 32 mph 1020.7mb 44f
12:30pm 31 36 mph 1020.3mb 45f
12:20pm 30 34 mph 1020.3mb 45f
12:10pm 28 33 mph 1020.3mb 45f
12:00pm 29 34 mph 1020mb 45f
11:50am 26 31 mph 1020.3mb 46f
11:40am 24 29 mph 1020.7mb 45f
11:30am 26 30 mph 1020.7mb 46f
11:20am 22 28 mph 1020.7mb 46f
11:10am 25 30 mph 1020.7mb 47f
11:00am 28 31 mph 1020.3mb 47f
10:50am 22 26 mph 1020.7mb 47f
10:40am 21 23 mph 1020.3mb 47f
10:30am 21 25 mph 1020.3mb 47f
10:20am 22 24 mph 1020mb 47f
10:10am 17 21 mph 1020mb 48f
10:00am 17 18 mph 1019.6mb 48f
9:50am 16 17 mph 1019.6mb 47f
9:40am 14 16 mph 1019.3mb 47f
9:30am 15 17 mph 1019.3mb 48f
9:20am 15 17 mph 1019mb 48f
9:10am 16 17 mph 1019mb 48f
9:00am 13 16 mph 1019mb 47f
8:50am 15 17 mph 1018.6mb 50f
8:40am 13 14 mph 1018.6mb 49f
8:30am 9 13 mph 1018.6mb 49f
8:20am 13 14 mph 1018.3mb 49f
8:10am 14 15 mph 1018.3mb 49f
8:00am 13 15 mph 1017.9mb 49f
7:50am 13 14 mph 1017.9mb 49f
7:40am 11 13 mph 1017.6mb 49f
7:30am 11 13 mph 1017.6mb 49f
7:20am 13
mph
1017.6mb 49f
7:10am 11 13 mph 1017.6mb 50f
7:00am 11 13 mph 1017.3mb 49f
6:50am 11 13 mph 1017.3mb 50f
6:40am 11
mph
1016.9mb 50f
6:30am 11 13 mph 1016.9mb 50f
6:20am 11 17 mph 1016.6mb 49f
6:10am 10 11 mph 1016.6mb 49f
6:00am 9
mph
1015.9mb 50f
5:50am 9
mph
1015.9mb 50f
5:40am 9 10 mph 1015.9mb 50f
5:30am 9
mph
1015.6mb 50f
5:20am 9
mph
1015.6mb 50f
5:10am 8
mph
1015.6mb 50f
5:00am 8 9 mph 1015.6mb 49f
4:50am 8 9 mph 1015.2mb 49f
4:40am 9 10 mph 1015.2mb 49f
4:30am 10
mph
1015.6mb 49f
4:20am 9
mph
1015.2mb 50f
4:10am 8 9 mph 1015.2mb 50f
4:00am 7 8 mph 1014.9mb 51f
3:50am 6 7 mph 1014.9mb 51f
3:40am 7 8 mph 1014.9mb 51f
3:30am 8 9 mph 1014.9mb 50f
3:20am 9
mph
1014.9mb 50f
3:10am 8 9 mph 1014.6mb 49f
3:00am 8 9 mph 1014.6mb 49f
2:50am 10
mph
1014.6mb 49f
2:40am 9
mph
1014.6mb 48f
2:30am 8 9 mph 1014.6mb 48f
2:20am 7
mph
1014.2mb 49f
2:10am 6 8 mph 1014.2mb 49f
2:00am 7 9 mph 1014.2mb 49f
1:50am 6 7 mph 1014.2mb 48f
1:40am 6 7 mph 1014.2mb 48f
1:30am 6 7 mph 1014.6mb 48f
1:20am 3 5 mph 1014.6mb 48f
1:10am 3 5 mph 1014.6mb 48f
1:00am 5 6 mph 1014.6mb 47f
12:50am 6 8 mph 1014.6mb 47f
12:40am 8 9 mph 1014.9mb -
12:30am 7 8 mph 1014.9mb -
12:20am 1 2 mph 1014.9mb -
12:10am 1 2 mph 1014.9mb -
12:00am 2
mph
1014.9mb -
Fri 04/17 11:50pm 2 7 mph 1014.9mb -
11:40pm 8 9 mph 1014.9mb -
11:30pm 9 10 mph 1014.9mb -
11:20pm 9 11 mph 1014.6mb -
11:10pm 10 11 mph 1014.9mb -
11:00pm 11 14 mph 1014.9mb -
10:50pm 14 15 mph 1014.9mb -
10:40pm 14 15 mph 1014.9mb -
10:30pm 14 15 mph 1014.9mb -
10:20pm 11 14 mph 1014.9mb -
10:10pm 13
mph
1014.9mb -
10:00pm 10 14 mph 1015.2mb -
9:50pm 13 14 mph 1014.9mb -
9:40pm 13 15 mph 1014.9mb -
9:30pm 15 16 mph 1014.9mb -
9:20pm 14 16 mph 1014.9mb -
9:10pm 15 16 mph 1014.9mb -
9:00pm 15 17 mph 1014.9mb -
8:50pm 17 18 mph 1014.9mb -
8:40pm 14 17 mph 1014.9mb -
8:30pm 15 18 mph 1014.9mb -
8:20pm 17 21 mph 1014.6mb -
8:10pm 6 7 mph 1014.2mb 67f
8:00pm 7
mph
1014.2mb 67f
7:50pm 7 8 mph 1014.2mb 67f
7:40pm 7 8 mph 1014.2mb 67f
7:30pm 8 9 mph 1014.2mb 67f
7:20pm 8 9 mph 1013.9mb 68f
7:10pm 9 11 mph 1013.9mb 66f
7:00pm 10
mph
1013.9mb 64f
6:50pm 10
mph
1013.9mb 64f
6:40pm 9
mph
1013.9mb 65f
6:30pm 8 9 mph 1014.2mb 67f
6:20pm 9 10 mph 1013.9mb 68f
6:10pm 11 13 mph 1013.9mb 69f
6:00pm 9 10 mph 1013.9mb 69f
5:50pm 9 11 mph 1013.9mb 68f
5:40pm 9
mph
1014.2mb 69f
5:30pm 9 10 mph 1014.2mb 69f
5:20pm 10 11 mph 1014.2mb 65f
5:10pm 10 11 mph 1014.2mb 68f
5:00pm 11
mph
1014.2mb 67f
4:50pm 11
mph
1014.2mb 67f
4:40pm 9 10 mph 1014.2mb 67f
4:30pm 10
mph
1014.2mb 66f
4:20pm 10 11 mph 1014.2mb 65f
4:10pm 10
mph
1014.6mb 65f
4:00pm 10 11 mph 1014.6mb 63f
3:50pm 9 10 mph 1014.6mb 64f
3:40pm 9 10 mph 1014.9mb 62f
3:30pm 9 10 mph 1014.9mb 61f
3:20pm 9 10 mph 1014.9mb 59f
3:10pm 9
mph
1014.9mb 64f
3:00pm 9 10 mph 1015.2mb 62f
2:50pm 10
mph
1015.6mb 63f
2:40pm 9
mph
1015.6mb 62f
2:30pm 9
mph
1015.6mb 62f
2:20pm 9
mph
1015.9mb 62f
2:10pm 8
mph
1015.9mb 62f
2:00pm 7 8 mph 1016.3mb 62f
1:50pm 7 8 mph 1016.3mb 60f
1:40pm 7 8 mph 1016.3mb 60f
1:30pm 8 9 mph 1016.3mb 59f
1:20pm 8 9 mph 1016.6mb 58f
1:10pm 8
mph
1016.6mb 59f
1:00pm 7
mph
1016.9mb 59f
12:50pm 7 8 mph 1016.9mb 58f
12:40pm 7
mph
1017.3mb 58f
12:30pm 6
mph
1017.3mb 56f
12:20pm 6
mph
1017.3mb 56f
12:10pm 5
mph
1017.6mb 56f
12:00pm 5 7 mph 1017.6mb 59f
11:50am 7
mph
1017.9mb 57f
11:40am 5 6 mph 1017.9mb 56f
11:30am 5 6 mph 1017.9mb 56f
11:20am 6
mph
1017.9mb 57f
11:10am 6
mph
1018.3mb 57f
11:00am 6 7 mph 1017.9mb 55f
10:50am 6 7 mph 1018.3mb 54f
10:40am 6
mph
1017.9mb 56f
10:30am 5 6 mph 1018.3mb 55f
10:20am 3 6 mph 1018.3mb 55f
10:10am 6
mph
1018.3mb 52f
10:00am 6 7 mph 1018.3mb 53f
9:50am 7 9 mph 1018.3mb 52f
9:40am 9
mph
1018.3mb 51f
9:30am 5 6 mph 1017.9mb 50f